Sawyer, Michigan
Current Conditions -  °F | °C
As of 5:15 PM on Saturday 25 Oct 2014 (Local Time) from KMGC Reporting Station
Clear Clear  
Wind Chill: 68°   Ceiling: Unl
Heat Index: 68°   Visibility: 10mi
Dew Point: 34°   Wind: 7mph
Humidity: 28%   Direction: 290°WNW
Pressure: 29.9"   Gusts: NA
Location:  41.89°N, 86.59°W
Report Text: KMGC 252115Z AUTO 29006KT 10SM CLR 20/01 A2990 RMK AO2
Loading
Personal Weather Stations






























Interactive Weather Map New forecast layout! Learn more

10-Day Weather Forecast

Advertisements
Track Severe Weather on mobile